Time;durP1;ratioP1;P1;durP2;ratioP2;P2;SDS_P1;SDS_P2;PMS_P1;PMS_P2;Temp;Humidity;BMP_temperature;BMP_pressure;BME280_temperature;BME280_humidity;BME280_pressure;Samples;Min_cycle;Max_cycle;Signal;HPM_P1;HPM_P2
2021/09/21 17:57:12;;;;;;;14.65;9.82;;;9.20;99.90;;;;;;6160895;23;20399;-96
2021/09/21 17:59:58;;;;;;;16.67;10.55;;;9.40;99.90;;;;;;6197620;23;20430;-96
2021/09/21 18:02:38;;;;;;;15.25;10.73;;;9.60;99.90;;;;;;6201471;23;20495;-96
2021/09/21 18:05:22;;;;;;;14.68;10.60;;;9.50;99.90;;;;;;6199959;23;20380;-96
2021/09/21 18:08:17;;;;;;;14.07;10.27;;;9.40;99.90;;;;;;6229629;23;20375;-96
2021/09/21 18:10:59;;;;;;;12.95;10.65;;;9.30;99.90;;;;;;6205430;23;20752;-95
2021/09/21 18:13:28;;;;;;;17.25;11.38;;;9.10;99.90;;;;;;6228474;23;20449;-96
2021/09/21 18:17:00;;;;;;;16.15;11.20;;;9.20;99.90;;;;;;6230595;23;20379;-96
2021/09/21 18:20:53;;;;;;;17.73;10.77;;;9.20;99.90;;;;;;6140046;23;20372;-94
2021/09/21 18:26:17;;;;;;;15.85;11.32;;;9.20;99.90;;;;;;6171442;23;20385;-96
2021/09/21 18:29:27;;;;;;;15.77;10.65;;;9.10;99.90;;;;;;6188023;23;20979;-96
2021/09/21 18:32:30;;;;;;;17.98;10.20;;;9.00;99.90;;;;;;6088472;23;20392;-96
2021/09/21 18:36:01;;;;;;;11.07;8.98;;;9.00;99.90;;;;;;6083130;23;20495;-95
2021/09/21 18:39:21;;;;;;;15.95;9.20;;;9.20;99.90;;;;;;6004406;23;20409;-96
2021/09/21 18:42:26;;;;;;;11.70;8.43;;;9.10;99.90;;;;;;5982713;24;20481;-96
2021/09/21 18:48:53;;;;;;;11.60;6.68;;;9.20;99.90;;;;;;5942736;24;20920;-95
2021/09/21 18:56:24;;;;;;;8.52;6.60;;;9.20;99.90;;;;;;5814449;24;20408;-96
2021/09/21 18:59:32;;;;;;;10.80;7.13;;;9.30;99.90;;;;;;5793757;24;20413;-96
2021/09/21 19:02:33;;;;;;;12.07;7.40;;;9.20;99.90;;;;;;5808434;24;20402;-96
2021/09/21 19:05:04;;;;;;;9.37;7.20;;;9.10;99.90;;;;;;5811397;24;20457;-94
2021/09/21 19:11:12;;;;;;;12.80;7.70;;;8.90;99.90;;;;;;6207133;23;20390;-96
2021/09/21 19:15:08;;;;;;;11.80;7.97;;;8.80;99.90;;;;;;6135431;23;20416;-96
2021/09/21 19:18:29;;;;;;;11.10;8.75;;;8.80;99.90;;;;;;6146962;23;20468;-96
2021/09/21 19:37:01;;;;;;;14.05;9.35;;;8.30;99.90;;;;;;6177535;22;20403;-95
2021/09/21 19:39:46;;;;;;;15.13;9.60;;;8.30;99.90;;;;;;6148124;23;20376;-96
2021/09/21 19:42:54;;;;;;;13.13;9.65;;;8.30;99.90;;;;;;6113926;23;20383;-96
2021/09/21 19:45:38;;;;;;;13.70;10.02;;;8.20;99.90;;;;;;6073959;23;20390;-95
2021/09/21 19:55:22;;;;;;;15.75;10.52;;;8.20;99.90;;;;;;6206141;23;20392;-96
2021/09/21 19:58:16;;;;;;;12.75;9.93;;;8.30;99.90;;;;;;6182889;23;20707;-96
2021/09/21 20:03:52;;;;;;;16.00;11.18;;;8.30;99.90;;;;;;6224649;23;20410;-96
2021/09/21 20:06:28;;;;;;;14.35;10.80;;;8.40;99.90;;;;;;6232174;23;20388;-96
2021/09/21 20:09:33;;;;;;;15.98;10.95;;;8.50;99.90;;;;;;6205655;23;20387;-96
2021/09/21 20:12:18;;;;;;;17.38;11.13;;;8.70;99.90;;;;;;6183961;23;20363;-96
2021/09/21 20:17:55;;;;;;;13.35;10.25;;;8.40;99.90;;;;;;6154957;23;20409;-96
2021/09/21 20:20:42;;;;;;;15.67;11.10;;;8.30;99.90;;;;;;6094115;23;20371;-96
2021/09/21 20:23:58;;;;;;;14.07;10.60;;;8.30;99.90;;;;;;6057666;23;20397;-96
2021/09/21 20:44:30;;;;;;;17.40;12.20;;;7.90;99.90;;;;;;6207191;23;20339;-96
2021/09/21 20:48:09;;;;;;;16.85;12.15;;;7.80;99.90;;;;;;6110534;23;20391;-96
2021/09/21 20:51:59;;;;;;;18.10;12.37;;;7.90;99.90;;;;;;6007240;23;20402;-96
2021/09/21 21:04:11;;;;;;;16.42;11.45;;;7.80;99.90;;;;;;6104080;23;20369;-95
2021/09/21 21:06:46;;;;;;;18.90;11.30;;;7.80;99.90;;;;;;6078712;23;20462;-96
